createdAt,value
2019-05-03T00:00:06.651Z,988.29
2019-05-03T00:01:06.628Z,988.30
2019-05-03T00:02:06.601Z,988.28
2019-05-03T00:03:06.597Z,988.31
2019-05-03T00:04:07.259Z,988.29
2019-05-03T00:05:06.634Z,988.28
2019-05-03T00:06:06.569Z,988.36
2019-05-03T00:07:06.592Z,988.33
2019-05-03T00:08:06.538Z,988.37
2019-05-03T00:09:06.527Z,988.35
2019-05-03T00:10:06.546Z,988.39
2019-05-03T00:11:06.512Z,988.38
2019-05-03T00:12:06.506Z,988.38
2019-05-03T00:13:06.485Z,988.36
2019-05-03T00:14:06.484Z,988.42
2019-05-03T00:15:07.754Z,988.40
2019-05-03T00:16:06.454Z,988.38
2019-05-03T00:17:06.444Z,988.42
2019-05-03T00:18:06.434Z,988.45
2019-05-03T00:19:06.449Z,988.46
2019-05-03T00:20:06.440Z,988.48
2019-05-03T00:21:06.411Z,988.48
2019-05-03T00:22:06.390Z,988.49
2019-05-03T00:23:06.387Z,988.52
2019-05-03T00:24:06.370Z,988.50
2019-05-03T00:25:08.455Z,988.54
2019-05-03T00:26:06.356Z,988.56
2019-05-03T00:27:06.347Z,988.51
2019-05-03T00:28:06.338Z,988.50
2019-05-03T00:29:06.328Z,988.58
2019-05-03T00:30:06.306Z,988.57
2019-05-03T00:31:06.325Z,988.60
2019-05-03T00:32:06.286Z,988.60
2019-05-03T00:33:06.284Z,988.67
2019-05-03T00:34:06.271Z,988.72
2019-05-03T00:35:06.263Z,988.71
2019-05-03T00:36:06.301Z,988.72
2019-05-03T00:37:06.267Z,988.69
2019-05-03T00:38:07.060Z,988.79
2019-05-03T00:39:06.282Z,988.80
2019-05-03T00:40:06.201Z,988.80
2019-05-03T00:41:06.220Z,988.82
2019-05-03T00:42:06.961Z,988.76
2019-05-03T00:43:06.192Z,988.81
2019-05-03T00:44:06.167Z,988.78
2019-05-03T00:45:07.058Z,988.75
2019-05-03T00:46:06.167Z,988.80
2019-05-03T00:47:06.128Z,988.79
2019-05-03T00:48:06.126Z,988.87
2019-05-03T00:49:06.107Z,988.86
2019-05-03T00:50:06.103Z,988.85
2019-05-03T00:51:06.116Z,988.95
2019-05-03T00:52:06.074Z,988.91
2019-05-03T00:53:06.065Z,988.91
2019-05-03T00:54:06.054Z,988.93
2019-05-03T00:55:15.660Z,988.93
2019-05-03T00:56:07.064Z,988.99
2019-05-03T00:57:06.031Z,988.96
2019-05-03T00:58:06.047Z,988.95
2019-05-03T00:59:06.012Z,988.92
2019-05-03T01:00:05.991Z,988.96
2019-05-03T01:01:06.007Z,988.96
2019-05-03T01:02:06.015Z,988.97
2019-05-03T01:03:05.967Z,988.96
2019-05-03T01:04:05.970Z,988.92
2019-05-03T01:05:05.940Z,989.02
2019-05-03T01:06:05.957Z,988.97
2019-05-03T01:07:05.917Z,988.95
2019-05-03T01:08:05.906Z,988.95
2019-05-03T01:09:05.898Z,988.98
2019-05-03T01:10:05.886Z,988.96
2019-05-03T01:11:05.905Z,988.97
2019-05-03T01:12:05.864Z,989.02
2019-05-03T01:13:05.860Z,988.96
2019-05-03T01:14:07.464Z,989.02
2019-05-03T01:15:05.832Z,989.07
2019-05-03T01:16:05.854Z,988.94
2019-05-03T01:17:05.813Z,989.06
2019-05-03T01:18:05.802Z,989.00
2019-05-03T01:19:05.903Z,988.96
2019-05-03T01:20:05.781Z,989.01
2019-05-03T01:21:05.777Z,988.97
2019-05-03T01:22:05.787Z,989.05
2019-05-03T01:23:05.756Z,989.05
2019-05-03T01:24:05.749Z,988.98
2019-05-03T01:25:05.768Z,989.07
2019-05-03T01:26:06.465Z,989.00
2019-05-03T01:27:05.728Z,989.02
2019-05-03T01:28:06.558Z,989.01
2019-05-03T01:29:05.687Z,989.01
2019-05-03T01:30:05.677Z,989.05
2019-05-03T01:31:05.673Z,989.07
2019-05-03T01:32:05.693Z,989.05
2019-05-03T01:33:05.648Z,989.09
2019-05-03T01:34:05.637Z,989.05
2019-05-03T01:35:05.623Z,989.08
2019-05-03T01:36:05.613Z,989.09
2019-05-03T01:37:06.533Z,989.08
2019-05-03T01:38:05.591Z,989.07
2019-05-03T01:39:06.121Z,989.09
2019-05-03T01:40:05.569Z,989.09
2019-05-03T01:41:05.560Z,989.07
2019-05-03T01:42:05.580Z,989.09
2019-05-03T01:43:05.539Z,989.07
2019-05-03T01:44:06.190Z,989.12
2019-05-03T01:45:05.525Z,989.09
2019-05-03T01:46:05.507Z,989.13
2019-05-03T01:47:05.529Z,989.14
2019-05-03T01:48:05.487Z,989.05
2019-05-03T01:49:05.476Z,989.09
2019-05-03T01:50:05.508Z,989.06
2019-05-03T01:51:05.455Z,989.11
2019-05-03T01:52:05.472Z,989.10
2019-05-03T01:53:05.435Z,989.20
2019-05-03T01:54:05.426Z,989.19
2019-05-03T01:55:06.165Z,989.15
2019-05-03T01:56:05.402Z,989.21
2019-05-03T01:57:05.420Z,989.19
2019-05-03T01:58:05.381Z,989.22
2019-05-03T01:59:05.372Z,989.22
2019-05-03T02:00:06.661Z,989.26
2019-05-03T02:01:05.350Z,989.27
2019-05-03T02:02:07.337Z,989.33
2019-05-03T02:03:05.329Z,989.34
2019-05-03T02:04:05.317Z,989.37
2019-05-03T02:05:05.308Z,989.35
2019-05-03T02:06:05.299Z,989.32
2019-05-03T02:07:05.286Z,989.34
2019-05-03T02:08:05.296Z,989.29
2019-05-03T02:09:05.258Z,989.30
2019-05-03T02:10:05.257Z,989.37
2019-05-03T02:11:05.244Z,989.32
2019-05-03T02:12:05.235Z,989.33
2019-05-03T02:13:05.248Z,989.36
2019-05-03T02:14:05.212Z,989.34
2019-05-03T02:15:05.203Z,989.34
2019-05-03T02:16:05.191Z,989.44
2019-05-03T02:17:05.181Z,989.32
2019-05-03T02:18:05.200Z,989.34
2019-05-03T02:19:05.160Z,989.34
2019-05-03T02:20:05.149Z,989.34
2019-05-03T02:21:05.140Z,989.35
2019-05-03T02:22:05.128Z,989.34
2019-05-03T02:23:05.219Z,989.33
2019-05-03T02:24:05.106Z,989.31
2019-05-03T02:25:05.116Z,989.30
2019-05-03T02:26:05.087Z,989.41
2019-05-03T02:27:05.075Z,989.38
2019-05-03T02:28:05.087Z,989.37
2019-05-03T02:29:05.046Z,989.34
2019-05-03T02:30:05.878Z,989.31
2019-05-03T02:31:05.033Z,989.33
2019-05-03T02:32:05.023Z,989.32
2019-05-03T02:33:05.068Z,989.30
2019-05-03T02:34:05.003Z,989.37
2019-05-03T02:35:04.993Z,989.42
2019-05-03T02:36:04.983Z,989.30
2019-05-03T02:37:04.972Z,989.33
2019-05-03T02:38:04.995Z,989.34
2019-05-03T02:39:04.980Z,989.40
2019-05-03T02:40:04.941Z,989.32
2019-05-03T02:41:04.922Z,989.26
2019-05-03T02:42:10.302Z,989.24
2019-05-03T02:43:05.940Z,989.31
2019-05-03T02:44:06.302Z,989.36
2019-05-03T02:45:06.072Z,989.37
2019-05-03T02:46:06.635Z,989.36
2019-05-03T02:47:05.525Z,989.34
2019-05-03T02:48:06.091Z,989.36
2019-05-03T02:49:06.388Z,989.37
2019-05-03T02:50:05.841Z,989.31
2019-05-03T02:51:06.524Z,989.30
2019-05-03T02:52:06.610Z,989.36
2019-05-03T02:53:05.794Z,989.33
2019-05-03T02:54:15.674Z,989.38
2019-05-03T02:55:06.095Z,989.38
2019-05-03T02:56:15.219Z,989.42
2019-05-03T02:57:06.432Z,989.36
2019-05-03T02:58:05.702Z,989.45
2019-05-03T02:59:06.239Z,989.42
2019-05-03T03:00:05.158Z,989.44
2019-05-03T03:01:06.501Z,989.45
2019-05-03T03:02:06.380Z,989.41
2019-05-03T03:03:05.535Z,989.43
2019-05-03T03:04:05.414Z,989.45
2019-05-03T03:05:05.774Z,989.48
2019-05-03T03:06:06.713Z,989.44
2019-05-03T03:07:05.646Z,989.42
2019-05-03T03:08:06.008Z,989.48
2019-05-03T03:09:05.417Z,989.55
2019-05-03T03:10:05.277Z,989.45
2019-05-03T03:11:06.302Z,989.45
2019-05-03T03:12:06.185Z,989.55
2019-05-03T03:13:05.935Z,989.50
2019-05-03T03:14:05.760Z,989.50
2019-05-03T03:15:06.221Z,989.41
2019-05-03T03:16:06.808Z,989.45
2019-05-03T03:17:06.637Z,989.45
2019-05-03T03:18:06.302Z,989.52
2019-05-03T03:19:06.630Z,989.52
2019-05-03T03:20:05.487Z,989.48
2019-05-03T03:21:05.822Z,989.56
2019-05-03T03:22:05.840Z,989.57
2019-05-03T03:23:06.154Z,989.58
2019-05-03T03:24:06.414Z,989.52
2019-05-03T03:25:05.573Z,989.53
2019-05-03T03:26:06.224Z,989.59
2019-05-03T03:27:05.354Z,989.60
2019-05-03T03:28:05.361Z,989.55
2019-05-03T03:29:05.884Z,989.61
2019-05-03T03:30:07.699Z,989.57
2019-05-03T03:31:08.274Z,989.64
2019-05-03T03:32:09.077Z,989.60
2019-05-03T03:33:08.683Z,989.68
2019-05-03T03:34:08.347Z,989.65
2019-05-03T03:35:11.377Z,989.64
2019-05-03T03:36:31.313Z,989.68
2019-05-03T03:37:10.028Z,989.69
2019-05-03T03:38:05.785Z,989.74
2019-05-03T03:39:06.007Z,989.74
2019-05-03T03:40:06.035Z,989.83
2019-05-03T03:41:05.896Z,989.77
2019-05-03T03:42:05.310Z,989.87
2019-05-03T03:43:05.343Z,989.84
2019-05-03T03:44:05.866Z,989.88
2019-05-03T03:45:06.153Z,989.88
2019-05-03T03:46:05.412Z,989.88
2019-05-03T03:47:05.396Z,989.87
2019-05-03T03:48:05.189Z,989.88
2019-05-03T03:49:06.855Z,989.93
2019-05-03T03:50:05.886Z,989.97
2019-05-03T03:51:05.145Z,989.89
2019-05-03T03:52:06.176Z,989.92
2019-05-03T03:53:06.720Z,989.94
2019-05-03T03:54:06.042Z,989.96
2019-05-03T03:55:06.399Z,989.98
2019-05-03T03:56:05.613Z,990.07
2019-05-03T03:57:08.183Z,990.05
2019-05-03T03:58:06.439Z,990.04
2019-05-03T03:59:05.823Z,990.04
2019-05-03T04:00:05.447Z,990.06
2019-05-03T04:01:06.133Z,990.07
2019-05-03T04:02:05.939Z,990.07
2019-05-03T04:03:05.910Z,990.11
2019-05-03T04:04:05.523Z,990.10
2019-05-03T04:05:05.598Z,990.13
2019-05-03T04:06:05.820Z,990.08
2019-05-03T04:07:06.243Z,990.11
2019-05-03T04:08:05.650Z,990.15
2019-05-03T04:09:05.197Z,990.13
2019-05-03T04:10:05.680Z,990.17
2019-05-03T04:11:06.315Z,990.16
2019-05-03T04:12:06.007Z,990.18
2019-05-03T04:13:05.426Z,990.19
2019-05-03T04:14:05.423Z,990.27
2019-05-03T04:15:05.695Z,990.26
2019-05-03T04:16:05.576Z,990.34
2019-05-03T04:17:05.855Z,990.42
2019-05-03T04:18:05.618Z,990.44
2019-05-03T04:19:05.819Z,990.41
2019-05-03T04:20:05.098Z,990.43
2019-05-03T04:21:05.554Z,990.49
2019-05-03T04:22:05.847Z,990.44
2019-05-03T04:23:05.318Z,990.50
2019-05-03T04:24:06.017Z,990.49
2019-05-03T04:25:05.984Z,990.52
2019-05-03T04:26:06.800Z,990.48
2019-05-03T04:27:15.599Z,990.55
2019-05-03T04:28:05.723Z,990.63
2019-05-03T04:29:05.368Z,990.55
2019-05-03T04:30:05.910Z,990.54
2019-05-03T04:31:06.199Z,990.56
2019-05-03T04:32:06.043Z,990.63
2019-05-03T04:33:05.961Z,990.58
2019-05-03T04:34:05.114Z,990.54
2019-05-03T04:35:05.419Z,990.54
2019-05-03T04:36:05.415Z,990.65
2019-05-03T04:37:05.343Z,990.67
2019-05-03T04:38:05.475Z,990.60
2019-05-03T04:39:05.370Z,990.71
2019-05-03T04:40:06.106Z,990.66
2019-05-03T04:41:05.944Z,990.68
2019-05-03T04:42:06.356Z,990.65
2019-05-03T04:43:06.110Z,990.76
2019-05-03T04:44:06.223Z,990.72
2019-05-03T04:45:05.908Z,990.74
2019-05-03T04:46:06.612Z,990.74
2019-05-03T04:47:06.344Z,990.68
2019-05-03T04:48:05.967Z,990.76
2019-05-03T04:49:05.761Z,990.88
2019-05-03T04:50:05.608Z,990.78
2019-05-03T04:51:05.852Z,990.79
2019-05-03T04:52:05.857Z,990.85
2019-05-03T04:53:05.656Z,990.84
2019-05-03T04:54:05.370Z,990.90
2019-05-03T04:55:06.363Z,990.91
2019-05-03T04:56:05.754Z,990.91
2019-05-03T04:57:06.390Z,990.90
2019-05-03T04:58:04.779Z,990.91
2019-05-03T04:59:05.170Z,990.99
2019-05-03T05:00:06.053Z,990.99
2019-05-03T05:01:06.284Z,990.97
2019-05-03T05:02:05.862Z,991.01
2019-05-03T05:03:05.623Z,990.96
2019-05-03T05:04:05.326Z,991.02
2019-05-03T05:05:05.841Z,991.04
2019-05-03T05:06:05.993Z,991.06
2019-05-03T05:07:05.931Z,991.07
2019-05-03T05:08:05.672Z,991.07
2019-05-03T05:09:04.998Z,991.07
2019-05-03T05:10:05.204Z,991.07
2019-05-03T05:11:05.813Z,991.02
2019-05-03T05:12:05.764Z,991.01
2019-05-03T05:13:05.421Z,991.06
2019-05-03T05:14:03.339Z,991.10
2019-05-03T05:15:05.241Z,991.11
2019-05-03T05:16:05.675Z,991.13
2019-05-03T05:17:05.853Z,991.13
2019-05-03T05:18:05.798Z,991.13
2019-05-03T05:19:05.651Z,991.13
2019-05-03T05:20:05.174Z,991.13
2019-05-03T05:21:04.585Z,991.13
2019-05-03T05:22:05.866Z,991.09
2019-05-03T05:23:04.590Z,991.18
2019-05-03T05:24:05.305Z,991.14
2019-05-03T05:25:04.488Z,991.18
2019-05-03T05:26:05.403Z,991.13
2019-05-03T05:27:05.221Z,991.14
2019-05-03T05:28:04.731Z,991.19
2019-05-03T05:29:05.224Z,991.24
2019-05-03T05:30:04.608Z,991.21
2019-05-03T05:31:04.788Z,991.18
2019-05-03T05:32:05.179Z,991.28
2019-05-03T05:33:03.111Z,991.19
2019-05-03T05:34:03.108Z,991.25
2019-05-03T05:35:05.113Z,991.26
2019-05-03T05:36:04.851Z,991.14
2019-05-03T05:37:03.078Z,991.20
2019-05-03T05:38:04.675Z,991.26
2019-05-03T05:39:05.139Z,991.17
2019-05-03T05:40:05.197Z,991.26
2019-05-03T05:41:05.148Z,991.16
2019-05-03T05:42:04.543Z,991.28
2019-05-03T05:43:04.706Z,991.22
2019-05-03T05:44:03.014Z,991.21
2019-05-03T05:45:04.958Z,991.16
2019-05-03T05:46:03.017Z,991.25
2019-05-03T05:47:04.580Z,991.24
2019-05-03T05:48:05.038Z,991.21
2019-05-03T05:49:04.318Z,991.24
2019-05-03T05:50:04.870Z,991.34
2019-05-03T05:51:04.432Z,991.33
2019-05-03T05:52:04.899Z,991.25
2019-05-03T05:53:04.820Z,991.29
2019-05-03T05:54:02.901Z,991.29
2019-05-03T05:55:04.634Z,991.31
2019-05-03T05:56:05.028Z,991.27
2019-05-03T05:57:05.040Z,991.31
2019-05-03T05:58:05.392Z,991.32
2019-05-03T05:59:04.476Z,991.32
2019-05-03T06:00:04.823Z,991.35
2019-05-03T06:01:02.866Z,991.36
2019-05-03T06:02:04.703Z,991.33
2019-05-03T06:03:02.816Z,991.39
2019-05-03T06:04:02.784Z,991.41
2019-05-03T06:05:04.741Z,991.44
2019-05-03T06:06:02.770Z,991.55
2019-05-03T06:07:04.494Z,991.51
2019-05-03T06:08:04.714Z,991.53
2019-05-03T06:09:02.732Z,991.56
2019-05-03T06:10:02.729Z,991.56
2019-05-03T06:11:04.448Z,991.51
2019-05-03T06:12:04.437Z,991.64
2019-05-03T06:13:04.818Z,991.59
2019-05-03T06:14:02.690Z,991.62
2019-05-03T06:15:04.647Z,991.62
2019-05-03T06:16:05.156Z,991.69
2019-05-03T06:17:02.678Z,991.59
2019-05-03T06:18:02.658Z,991.67
2019-05-03T06:19:04.556Z,991.61
2019-05-03T06:20:02.627Z,991.66
2019-05-03T06:21:04.502Z,991.65
2019-05-03T06:22:02.645Z,991.61
2019-05-03T06:23:02.586Z,991.73
2019-05-03T06:24:04.364Z,991.73
2019-05-03T06:25:06.148Z,991.70
2019-05-03T06:26:04.986Z,991.73
2019-05-03T06:27:02.579Z,991.78
2019-05-03T06:28:14.720Z,991.77
2019-05-03T06:29:04.580Z,991.84
2019-05-03T06:30:04.592Z,991.75
2019-05-03T06:31:02.500Z,991.77
2019-05-03T06:32:02.529Z,991.83
2019-05-03T06:33:02.499Z,991.83
2019-05-03T06:34:04.432Z,991.83
2019-05-03T06:35:02.459Z,991.80
2019-05-03T06:36:02.537Z,991.84
2019-05-03T06:37:04.354Z,991.84
2019-05-03T06:38:02.443Z,991.75
2019-05-03T06:39:02.418Z,991.80
2019-05-03T06:40:05.816Z,991.77
2019-05-03T06:41:04.260Z,991.85
2019-05-03T06:42:02.405Z,991.77
2019-05-03T06:43:09.787Z,991.86
2019-05-03T06:44:04.397Z,991.79
2019-05-03T06:45:09.053Z,991.78
2019-05-03T06:46:05.309Z,991.82
2019-05-03T06:47:09.092Z,991.79
2019-05-03T06:48:05.410Z,991.82
2019-05-03T06:49:06.619Z,991.83
2019-05-03T06:50:05.383Z,991.79
2019-05-03T06:51:06.057Z,991.84
2019-05-03T06:52:03.317Z,991.86
2019-05-03T06:53:05.834Z,991.85
2019-05-03T06:54:05.098Z,991.82
2019-05-03T06:55:08.561Z,991.80
2019-05-03T06:56:04.565Z,991.81
2019-05-03T06:57:05.698Z,991.80
2019-05-03T06:58:04.962Z,991.82
2019-05-03T06:59:02.216Z,991.79
2019-05-03T07:00:02.205Z,991.84
2019-05-03T07:01:04.651Z,991.86
2019-05-03T07:02:02.173Z,991.86
2019-05-03T07:03:02.190Z,991.86
2019-05-03T07:04:04.977Z,991.87
2019-05-03T07:05:02.141Z,991.87
2019-05-03T07:06:04.513Z,991.83
2019-05-03T07:07:02.123Z,991.88
2019-05-03T07:08:02.161Z,991.84
2019-05-03T07:09:02.100Z,991.82
2019-05-03T07:10:02.090Z,991.87
2019-05-03T07:11:03.402Z,991.84
2019-05-03T07:12:04.366Z,991.83
2019-05-03T07:13:02.091Z,991.84
2019-05-03T07:14:02.047Z,991.88
2019-05-03T07:15:02.037Z,991.86
2019-05-03T07:16:04.666Z,991.90
2019-05-03T07:17:02.017Z,991.92
2019-05-03T07:18:02.052Z,991.93
2019-05-03T07:19:02.005Z,991.94
2019-05-03T07:20:02.004Z,991.95
2019-05-03T07:21:01.973Z,991.96
2019-05-03T07:22:04.851Z,991.98
2019-05-03T07:23:01.973Z,992.01
2019-05-03T07:24:01.942Z,991.97
2019-05-03T07:25:04.570Z,992.01
2019-05-03T07:26:01.927Z,992.01
2019-05-03T07:27:02.057Z,992.05
2019-05-03T07:28:01.938Z,992.08
2019-05-03T07:29:04.835Z,991.99
2019-05-03T07:30:01.910Z,992.03
2019-05-03T07:31:01.873Z,991.98
2019-05-03T07:32:01.868Z,992.03
2019-05-03T07:33:01.848Z,991.98
2019-05-03T07:34:01.867Z,992.03
2019-05-03T07:35:01.841Z,992.02
2019-05-03T07:36:01.816Z,992.06
2019-05-03T07:37:01.803Z,991.94
2019-05-03T07:38:01.796Z,992.02
2019-05-03T07:39:01.835Z,992.05
2019-05-03T07:40:01.775Z,992.03
2019-05-03T07:41:01.764Z,992.04
2019-05-03T07:42:01.783Z,991.99
2019-05-03T07:43:01.803Z,991.99
2019-05-03T07:44:02.053Z,991.90
2019-05-03T07:45:01.722Z,992.01
2019-05-03T07:46:01.718Z,992.01
2019-05-03T07:47:01.701Z,992.02
2019-05-03T07:48:01.690Z,991.98
2019-05-03T07:49:01.713Z,991.89
2019-05-03T07:50:01.667Z,991.97
2019-05-03T07:51:01.657Z,991.97
2019-05-03T07:52:01.647Z,991.99
2019-05-03T07:53:01.638Z,991.93
2019-05-03T07:54:01.657Z,991.88
2019-05-03T07:55:01.628Z,991.99
2019-05-03T07:56:01.627Z,991.96
2019-05-03T07:57:01.595Z,992.00
2019-05-03T07:58:04.576Z,991.93
2019-05-03T07:59:05.658Z,991.93
2019-05-03T08:00:01.574Z,991.96
2019-05-03T08:01:06.069Z,991.95
2019-05-03T08:02:02.544Z,991.92
2019-05-03T08:03:01.592Z,991.97
2019-05-03T08:04:02.545Z,991.92
2019-05-03T08:05:01.512Z,991.97
2019-05-03T08:06:04.319Z,991.93
2019-05-03T08:07:01.493Z,991.89
2019-05-03T08:08:01.480Z,991.92
2019-05-03T08:09:01.498Z,991.82
2019-05-03T08:10:05.274Z,991.91
2019-05-03T08:11:01.470Z,991.91
2019-05-03T08:12:01.437Z,991.83
2019-05-03T08:13:01.428Z,991.84
2019-05-03T08:14:01.436Z,991.80
2019-05-03T08:15:01.417Z,991.84
2019-05-03T08:16:01.412Z,991.80
2019-05-03T08:17:01.389Z,991.84
2019-05-03T08:18:01.385Z,991.85
2019-05-03T08:19:01.465Z,991.81
2019-05-03T08:20:01.358Z,991.90
2019-05-03T08:21:01.388Z,991.85
2019-05-03T08:22:01.325Z,991.89
2019-05-03T08:23:01.330Z,991.88
2019-05-03T08:24:01.430Z,991.85
2019-05-03T08:25:01.293Z,991.77
2019-05-03T08:26:01.330Z,991.85
2019-05-03T08:27:01.277Z,991.82
2019-05-03T08:28:01.261Z,991.83
2019-05-03T08:29:14.826Z,991.84
2019-05-03T08:30:02.269Z,991.81
2019-05-03T08:31:01.929Z,991.79
2019-05-03T08:32:01.930Z,991.87
2019-05-03T08:33:01.928Z,991.83
2019-05-03T08:34:01.208Z,991.91
2019-05-03T08:35:01.219Z,991.84
2019-05-03T08:36:01.185Z,991.87
2019-05-03T08:37:01.166Z,991.84
2019-05-03T08:38:01.164Z,991.87
2019-05-03T08:39:01.170Z,991.86
2019-05-03T08:40:01.167Z,991.89
2019-05-03T08:41:01.130Z,991.90
2019-05-03T08:42:01.125Z,991.88
2019-05-03T08:43:01.110Z,991.90
2019-05-03T08:44:01.095Z,991.85
2019-05-03T08:45:01.112Z,991.94
2019-05-03T08:46:01.076Z,991.94
2019-05-03T08:47:01.095Z,991.77
2019-05-03T08:48:01.060Z,991.80
2019-05-03T08:49:01.040Z,991.95
2019-05-03T08:50:01.063Z,991.86
2019-05-03T08:51:01.030Z,991.91
2019-05-03T08:52:01.037Z,991.89
2019-05-03T08:53:01.086Z,991.87
2019-05-03T08:54:01.930Z,991.78
2019-05-03T08:55:01.033Z,991.81
2019-05-03T08:56:07.983Z,991.78
2019-05-03T08:57:00.956Z,991.79
2019-05-03T08:58:01.450Z,991.74
2019-05-03T08:59:00.930Z,991.80
2019-05-03T09:00:00.948Z,991.81
2019-05-03T09:01:01.568Z,991.79
2019-05-03T09:02:03.493Z,991.71
2019-05-03T09:03:01.888Z,991.71
2019-05-03T09:04:01.458Z,991.74
2019-05-03T09:05:00.887Z,991.74
2019-05-03T09:06:00.864Z,991.76
2019-05-03T09:07:00.845Z,991.74
2019-05-03T09:08:00.862Z,991.72
2019-05-03T09:09:00.832Z,991.73
2019-05-03T09:10:00.834Z,991.72
2019-05-03T09:11:00.804Z,991.70
2019-05-03T09:12:00.793Z,991.80
2019-05-03T09:13:03.450Z,991.71
2019-05-03T09:14:00.781Z,991.72
2019-05-03T09:15:00.791Z,991.79
2019-05-03T09:16:00.807Z,991.71
2019-05-03T09:17:00.740Z,991.77
2019-05-03T09:18:01.497Z,991.72
2019-05-03T09:19:00.804Z,991.78
2019-05-03T09:20:00.754Z,991.74
2019-05-03T09:21:00.698Z,991.73
2019-05-03T09:22:00.688Z,991.69
2019-05-03T09:23:00.678Z,991.70
2019-05-03T09:24:01.390Z,991.71
2019-05-03T09:25:00.656Z,991.72
2019-05-03T09:26:00.665Z,991.72
2019-05-03T09:27:00.635Z,991.67
2019-05-03T09:28:00.624Z,991.64
2019-05-03T09:29:00.614Z,991.62
2019-05-03T09:30:01.385Z,991.59
2019-05-03T09:31:00.614Z,991.57
2019-05-03T09:32:00.582Z,991.65
2019-05-03T09:33:00.569Z,991.61
2019-05-03T09:34:00.552Z,991.56
2019-05-03T09:35:00.543Z,991.60
2019-05-03T09:36:01.511Z,991.58
2019-05-03T09:37:00.530Z,991.54
2019-05-03T09:38:00.520Z,991.60
2019-05-03T09:39:00.510Z,991.60
2019-05-03T09:40:00.489Z,991.59
2019-05-03T09:41:01.019Z,991.61
2019-05-03T09:42:00.559Z,991.54
2019-05-03T09:43:00.457Z,991.59
2019-05-03T09:44:00.470Z,991.54
2019-05-03T09:45:00.439Z,991.60
2019-05-03T09:46:00.492Z,991.60
2019-05-03T09:47:00.415Z,991.64
2019-05-03T09:48:00.406Z,991.64
2019-05-03T09:49:11.056Z,991.66
2019-05-03T09:50:02.229Z,991.60
2019-05-03T09:51:00.428Z,991.59
2019-05-03T09:52:00.384Z,991.63
2019-05-03T09:53:00.354Z,991.59
2019-05-03T09:54:00.351Z,991.58
2019-05-03T09:55:00.332Z,991.60
2019-05-03T09:56:00.350Z,991.61
2019-05-03T09:57:00.957Z,991.62
2019-05-03T09:58:00.299Z,991.66
2019-05-03T09:59:00.290Z,991.60
2019-05-03T10:00:01.052Z,991.60
2019-05-03T10:01:00.290Z,991.67
2019-05-03T10:02:00.260Z,991.63
2019-05-03T10:03:00.247Z,991.55
2019-05-03T10:04:00.238Z,991.62
2019-05-03T10:05:01.167Z,991.44
2019-05-03T10:06:00.245Z,991.55
2019-05-03T10:07:00.207Z,991.53
2019-05-03T10:08:00.194Z,991.53
2019-05-03T10:09:00.187Z,991.48
2019-05-03T10:10:00.177Z,991.56
2019-05-03T10:11:00.195Z,991.60
2019-05-03T10:12:00.165Z,991.57
2019-05-03T10:13:01.064Z,991.48
2019-05-03T10:14:00.149Z,991.49
2019-05-03T10:15:00.119Z,991.53
2019-05-03T10:16:00.132Z,991.60
2019-05-03T10:17:00.092Z,991.59
2019-05-03T10:18:00.100Z,991.69
2019-05-03T10:19:00.072Z,991.65
2019-05-03T10:20:00.062Z,991.61
2019-05-03T10:21:00.157Z,991.70
2019-05-03T10:22:00.039Z,991.65
2019-05-03T10:23:00.031Z,991.77
2019-05-03T10:24:00.029Z,991.79
2019-05-03T10:25:00.047Z,991.70
2019-05-03T10:25:59.999Z,991.72
2019-05-03T10:27:00.008Z,991.66
2019-05-03T10:27:59.978Z,991.69
2019-05-03T10:29:00.049Z,991.67
2019-05-03T10:30:10.559Z,991.64
2019-05-03T10:31:00.952Z,991.58
2019-05-03T10:31:59.956Z,991.62
2019-05-03T10:32:59.924Z,991.57
2019-05-03T10:33:59.917Z,991.49
2019-05-03T10:34:59.901Z,991.57
2019-05-03T10:35:59.900Z,991.58
2019-05-03T10:36:59.904Z,991.59
2019-05-03T10:37:59.873Z,991.54
2019-05-03T10:38:59.887Z,991.61
2019-05-03T10:39:59.851Z,991.59
2019-05-03T10:41:00.612Z,991.57
2019-05-03T10:41:59.852Z,991.66
2019-05-03T10:42:59.821Z,991.60
2019-05-03T10:43:59.801Z,991.64
2019-05-03T10:44:59.791Z,991.65
2019-05-03T10:46:00.509Z,991.62
2019-05-03T10:47:00.608Z,991.58
2019-05-03T10:47:59.766Z,991.64
2019-05-03T10:48:59.780Z,991.62
2019-05-03T10:49:59.738Z,991.62
2019-05-03T10:50:59.758Z,991.62
2019-05-03T10:51:59.748Z,991.58
2019-05-03T10:52:59.714Z,991.60
2019-05-03T10:53:59.696Z,991.51
2019-05-03T10:54:59.704Z,991.56
2019-05-03T10:55:59.677Z,991.62
2019-05-03T10:56:59.692Z,991.55
2019-05-03T10:57:59.664Z,991.55
2019-05-03T10:59:00.563Z,991.63
2019-05-03T11:00:00.163Z,991.59
2019-05-03T11:00:59.624Z,991.58
2019-05-03T11:01:59.642Z,991.55
2019-05-03T11:02:59.602Z,991.59
2019-05-03T11:04:00.401Z,991.52
2019-05-03T11:04:59.621Z,991.56
2019-05-03T11:06:00.201Z,991.53
2019-05-03T11:06:59.590Z,991.54
2019-05-03T11:07:59.549Z,991.55
2019-05-03T11:08:59.551Z,991.57
2019-05-03T11:09:59.528Z,991.54
2019-05-03T11:11:00.329Z,991.56
2019-05-03T11:11:59.556Z,991.55
2019-05-03T11:12:59.497Z,991.52
2019-05-03T11:13:59.485Z,991.57
2019-05-03T11:14:59.496Z,991.54
2019-05-03T11:15:59.535Z,991.54
2019-05-03T11:17:00.602Z,991.53
2019-05-03T11:17:59.467Z,991.45
2019-05-03T11:19:00.204Z,991.53
2019-05-03T11:20:00.323Z,991.48
2019-05-03T11:20:59.404Z,991.40
2019-05-03T11:21:59.429Z,991.46
2019-05-03T11:22:59.420Z,991.45
2019-05-03T11:23:59.381Z,991.39
2019-05-03T11:24:59.371Z,991.38
2019-05-03T11:26:00.202Z,991.39
2019-05-03T11:27:01.144Z,991.37
2019-05-03T11:27:59.400Z,991.41
2019-05-03T11:29:00.589Z,991.43
2019-05-03T11:29:59.364Z,991.44
2019-05-03T11:31:02.299Z,991.32
2019-05-03T11:31:59.297Z,991.40
2019-05-03T11:32:59.316Z,991.36
2019-05-03T11:33:59.276Z,991.47
2019-05-03T11:34:59.261Z,991.42
2019-05-03T11:35:59.247Z,991.44
2019-05-03T11:36:59.237Z,991.51
2019-05-03T11:37:59.255Z,991.41
2019-05-03T11:38:59.216Z,991.55
2019-05-03T11:39:59.212Z,991.50
2019-05-03T11:40:59.195Z,991.48
2019-05-03T11:41:59.184Z,991.51
2019-05-03T11:42:59.194Z,991.50
2019-05-03T11:43:59.163Z,991.55
2019-05-03T11:44:59.153Z,991.51
2019-05-03T11:45:59.144Z,991.45
2019-05-03T11:46:59.133Z,991.42
2019-05-03T11:48:01.194Z,991.46
2019-05-03T11:48:59.112Z,991.42
2019-05-03T11:49:59.825Z,991.44
2019-05-03T11:50:59.089Z,991.42
2019-05-03T11:51:59.947Z,991.46
2019-05-03T11:52:59.689Z,991.42
2019-05-03T11:53:59.059Z,991.44
2019-05-03T11:54:59.075Z,991.45
2019-05-03T11:55:59.039Z,991.44
2019-05-03T11:56:59.786Z,991.47
2019-05-03T11:57:59.046Z,991.40
2019-05-03T11:58:59.004Z,991.41
2019-05-03T11:59:58.997Z,991.45
2019-05-03T12:01:11.580Z,991.48
2019-05-03T12:01:59.974Z,991.46
2019-05-03T12:02:58.984Z,991.50
2019-05-03T12:03:58.954Z,991.43
2019-05-03T12:04:59.016Z,991.46
2019-05-03T12:05:58.936Z,991.46
2019-05-03T12:06:59.683Z,991.50
2019-05-03T12:08:00.683Z,991.53
2019-05-03T12:08:58.982Z,991.44
2019-05-03T12:09:58.895Z,991.54
2019-05-03T12:11:01.632Z,991.53
2019-05-03T12:11:58.869Z,991.48
2019-05-03T12:12:58.918Z,991.55
2019-05-03T12:14:04.149Z,991.41
2019-05-03T12:14:59.836Z,991.46
2019-05-03T12:15:58.838Z,991.39
2019-05-03T12:17:16.741Z,991.38
2019-05-03T12:18:00.204Z,991.42
2019-05-03T12:18:58.884Z,991.43
2019-05-03T12:19:59.812Z,991.39
2019-05-03T12:21:01.008Z,991.41
2019-05-03T12:21:59.339Z,991.48
2019-05-03T12:23:00.020Z,991.44
2019-05-03T12:23:59.259Z,991.42
2019-05-03T12:24:59.382Z,991.44
2019-05-03T12:25:59.970Z,991.42
2019-05-03T12:26:58.703Z,991.39
2019-05-03T12:27:58.694Z,991.39